createdAt,value
2023-04-15T00:00:01.741Z,97718.56
2023-04-15T00:02:28.491Z,97723.59
2023-04-15T00:04:55.006Z,97724.28
2023-04-15T00:07:21.533Z,97742.53
2023-04-15T00:09:47.840Z,97742.44
2023-04-15T00:12:14.215Z,97752.53
2023-04-15T00:14:40.690Z,97751.75
2023-04-15T00:17:06.982Z,97753.31
2023-04-15T00:19:33.358Z,97747.41
2023-04-15T00:21:59.731Z,97752.44
2023-04-15T00:24:26.028Z,97754.25
2023-04-15T00:26:52.487Z,97753.69
2023-04-15T00:29:18.928Z,97765.72
2023-04-15T00:31:45.553Z,97772.75
2023-04-15T00:34:11.936Z,97772.22
2023-04-15T00:36:38.254Z,97777.19
2023-04-15T00:39:04.632Z,97781.41
2023-04-15T00:41:31.093Z,97775.50
2023-04-15T00:43:57.403Z,97773.47
2023-04-15T00:46:23.740Z,97762.50
2023-04-15T00:48:50.168Z,97767.94
2023-04-15T00:51:16.556Z,97767.06
2023-04-15T00:53:42.897Z,97775.53
2023-04-15T00:56:09.263Z,97777.00
2023-04-15T00:58:35.614Z,97778.34
2023-04-15T01:01:01.973Z,97792.22
2023-04-15T01:03:29.454Z,97797.66
2023-04-15T01:05:55.885Z,97794.47
2023-04-15T01:08:22.501Z,97797.09
2023-04-15T01:10:48.946Z,97807.50
2023-04-15T01:13:15.256Z,97817.59
2023-04-15T01:15:41.592Z,97810.91
2023-04-15T01:18:07.974Z,97812.38
2023-04-15T01:20:37.184Z,97813.84
2023-04-15T01:23:03.517Z,97813.38
2023-04-15T01:25:29.950Z,97813.28
2023-04-15T01:27:56.307Z,97817.47
2023-04-15T01:30:22.645Z,97813.53
2023-04-15T01:32:49.067Z,97822.00
2023-04-15T01:35:15.415Z,97828.91
2023-04-15T01:37:41.733Z,97833.88
2023-04-15T01:40:08.581Z,97838.41
2023-04-15T01:42:35.708Z,97827.09
2023-04-15T01:45:02.024Z,97830.16
2023-04-15T01:47:28.422Z,97833.19
2023-04-15T01:49:54.782Z,97825.72
2023-04-15T01:52:21.742Z,97831.84
2023-04-15T01:54:48.161Z,97836.00
2023-04-15T01:57:14.516Z,97833.66
2023-04-15T01:59:40.849Z,97830.38
2023-04-15T02:02:07.256Z,97828.31
2023-04-15T02:04:33.617Z,97834.06
2023-04-15T02:06:59.940Z,97831.25
2023-04-15T02:09:26.331Z,97835.44
2023-04-15T02:11:52.665Z,97831.59
2023-04-15T02:14:19.002Z,97840.06
2023-04-15T02:16:46.626Z,97842.78
2023-04-15T02:19:15.565Z,97841.53
2023-04-15T02:21:41.923Z,97842.31
2023-04-15T02:24:08.279Z,97844.72
2023-04-15T02:26:34.618Z,97847.31
2023-04-15T02:29:01.421Z,97857.72
2023-04-15T02:31:28.137Z,97859.63
2023-04-15T02:33:54.626Z,97849.91
2023-04-15T02:36:20.974Z,97859.53
2023-04-15T02:38:47.325Z,97864.16
2023-04-15T02:41:15.042Z,97871.06
2023-04-15T02:43:42.151Z,97881.13
2023-04-15T02:46:09.298Z,97885.31
2023-04-15T02:48:35.646Z,97888.81
2023-04-15T02:51:03.262Z,97885.63
2023-04-15T02:53:29.638Z,97882.44
2023-04-15T02:55:55.971Z,97883.91
2023-04-15T02:58:22.303Z,97883.34
2023-04-15T03:00:48.712Z,97882.41
2023-04-15T03:03:15.242Z,97879.25
2023-04-15T03:05:41.714Z,97871.78
2023-04-15T03:08:08.145Z,97869.69
2023-04-15T03:10:34.482Z,97880.06
2023-04-15T03:13:01.522Z,97884.25
2023-04-15T03:15:27.971Z,97877.25
2023-04-15T03:17:54.756Z,97885.22
2023-04-15T03:20:21.173Z,97890.22
2023-04-15T03:22:48.416Z,97886.25
2023-04-15T03:25:14.999Z,97881.13
2023-04-15T03:27:42.382Z,97881.81
2023-04-15T03:30:08.770Z,97868.91
2023-04-15T03:32:37.103Z,97880.09
2023-04-15T03:35:05.762Z,97874.19
2023-04-15T03:37:32.129Z,97860.50
2023-04-15T03:39:58.438Z,97873.94
2023-04-15T03:42:24.758Z,97876.50
2023-04-15T03:44:51.104Z,97878.78
2023-04-15T03:47:17.545Z,97886.44
2023-04-15T03:49:43.874Z,97880.53
2023-04-15T03:52:10.228Z,97890.47
2023-04-15T03:54:36.582Z,97889.56
2023-04-15T03:57:02.960Z,97898.78
2023-04-15T03:59:29.324Z,97897.22
2023-04-15T04:01:55.742Z,97895.16
2023-04-15T04:04:22.217Z,97910.97
2023-04-15T04:06:48.664Z,97913.53
2023-04-15T04:09:14.980Z,97899.50
2023-04-15T04:11:41.305Z,97902.56
2023-04-15T04:14:07.668Z,97900.03
2023-04-15T04:16:34.001Z,97903.88
2023-04-15T04:19:00.601Z,97909.59
2023-04-15T04:21:27.077Z,97904.84
2023-04-15T04:23:53.398Z,97913.31
2023-04-15T04:26:19.826Z,97915.22
2023-04-15T04:28:46.251Z,97919.72
2023-04-15T04:31:12.562Z,97922.75
2023-04-15T04:33:38.893Z,97909.84
2023-04-15T04:36:05.268Z,97922.59
2023-04-15T04:38:31.566Z,97915.91
2023-04-15T04:40:57.933Z,97895.22
2023-04-15T04:43:24.495Z,97897.16
2023-04-15T04:45:50.881Z,97902.09
2023-04-15T04:48:17.224Z,97898.91
2023-04-15T04:50:43.581Z,97900.81
2023-04-15T04:53:09.898Z,97909.94
2023-04-15T04:55:36.198Z,97903.41
2023-04-15T04:58:02.572Z,97903.69
2023-04-15T05:00:28.960Z,97916.47
2023-04-15T05:02:55.629Z,97920.31
2023-04-15T05:05:22.141Z,97919.50
2023-04-15T05:07:48.457Z,97929.56
2023-04-15T05:10:14.909Z,97926.38
2023-04-15T05:12:41.341Z,97922.09
2023-04-15T05:15:07.655Z,97929.38
2023-04-15T05:17:34.013Z,97933.28
2023-04-15T05:20:00.455Z,97943.31
2023-04-15T05:22:26.804Z,97938.50
2023-04-15T05:24:53.130Z,97935.47
2023-04-15T05:27:19.512Z,97942.78
2023-04-15T05:29:45.844Z,97945.50
2023-04-15T05:32:12.273Z,97947.91
2023-04-15T05:34:38.644Z,97947.13
2023-04-15T05:37:04.975Z,97940.88
2023-04-15T05:39:31.301Z,97948.22
2023-04-15T05:41:57.690Z,97947.72
2023-04-15T05:44:24.013Z,97954.28
2023-04-15T05:46:50.321Z,97955.41
2023-04-15T05:49:16.741Z,97961.47
2023-04-15T05:51:43.051Z,97961.47
2023-04-15T05:54:09.344Z,97964.19
2023-04-15T05:56:35.767Z,97971.50
2023-04-15T05:59:02.357Z,97970.69
2023-04-15T06:01:28.846Z,97969.13
2023-04-15T06:03:55.422Z,97972.63
2023-04-15T06:06:21.852Z,97974.53
2023-04-15T06:08:48.194Z,97973.22
2023-04-15T06:11:14.560Z,97977.06
2023-04-15T06:13:40.864Z,97975.78
2023-04-15T06:16:07.241Z,97982.66
2023-04-15T06:18:33.645Z,97977.22
2023-04-15T06:21:00.047Z,97976.44
2023-04-15T06:23:27.944Z,97975.66
2023-04-15T06:25:54.449Z,97977.56
2023-04-15T06:28:20.767Z,97980.41
2023-04-15T06:30:47.104Z,97969.72
2023-04-15T06:33:13.462Z,97969.91
2023-04-15T06:35:39.778Z,97976.28
2023-04-15T06:38:06.078Z,97975.94
2023-04-15T06:40:32.444Z,97972.94
2023-04-15T06:42:58.793Z,97985.47
2023-04-15T06:45:25.146Z,97977.06
2023-04-15T06:47:51.561Z,97989.16
2023-04-15T06:50:17.902Z,97986.91
2023-04-15T06:52:44.273Z,97986.25
2023-04-15T06:55:10.664Z,97977.34
2023-04-15T06:57:36.995Z,97987.22
2023-04-15T07:00:03.329Z,97983.50
2023-04-15T07:02:31.104Z,97986.38
2023-04-15T07:04:57.509Z,97994.66
2023-04-15T07:07:23.848Z,97992.41
2023-04-15T07:09:50.235Z,97987.59
2023-04-15T07:12:16.560Z,97987.44
2023-04-15T07:14:42.861Z,97983.41
2023-04-15T07:17:09.329Z,97987.03
2023-04-15T07:19:35.780Z,98001.22
2023-04-15T07:22:02.125Z,97995.97
2023-04-15T07:24:28.490Z,97987.63
2023-04-15T07:26:54.806Z,97988.22
2023-04-15T07:29:21.140Z,97988.84
2023-04-15T07:31:47.576Z,97993.28
2023-04-15T07:34:13.955Z,97985.41
2023-04-15T07:36:40.296Z,97989.38
2023-04-15T07:39:06.712Z,97980.25
2023-04-15T07:41:33.024Z,97973.06
2023-04-15T07:43:59.396Z,97988.34
2023-04-15T07:46:25.816Z,97993.91
2023-04-15T07:48:52.216Z,97994.03
2023-04-15T07:51:18.566Z,97998.19
2023-04-15T07:53:44.925Z,98000.72
2023-04-15T07:56:11.282Z,97999.69
2023-04-15T07:58:37.615Z,97986.25
2023-04-15T08:01:03.997Z,98006.63
2023-04-15T08:03:30.525Z,98006.00
2023-04-15T08:05:57.016Z,98004.19
2023-04-15T08:08:23.389Z,98005.59
2023-04-15T08:10:52.025Z,98004.59
2023-04-15T08:13:18.876Z,98007.44
2023-04-15T08:15:45.329Z,98009.81
2023-04-15T08:18:11.659Z,98010.75
2023-04-15T08:20:38.141Z,98009.72
2023-04-15T08:23:04.512Z,98011.47
2023-04-15T08:25:30.931Z,98014.41
2023-04-15T08:27:57.320Z,98012.28
2023-04-15T08:30:23.682Z,98017.16
2023-04-15T08:32:50.094Z,98016.50
2023-04-15T08:35:16.501Z,98009.59
2023-04-15T08:37:42.912Z,98006.69
2023-04-15T08:40:09.297Z,98015.06
2023-04-15T08:42:35.709Z,98012.13
2023-04-15T08:45:02.156Z,98011.94
2023-04-15T08:47:28.613Z,98016.34
2023-04-15T08:49:55.038Z,98018.06
2023-04-15T08:52:21.411Z,98021.03
2023-04-15T08:54:47.824Z,98015.38
2023-04-15T08:57:14.220Z,98021.72
2023-04-15T08:59:40.610Z,98021.50
2023-04-15T09:02:07.014Z,98026.72
2023-04-15T09:04:33.434Z,98027.63
2023-04-15T09:06:59.787Z,98023.91
2023-04-15T09:09:26.095Z,98027.19
2023-04-15T09:11:52.497Z,98025.72
2023-04-15T09:14:18.910Z,98018.00
2023-04-15T09:16:45.277Z,98028.34
2023-04-15T09:19:11.746Z,98030.03
2023-04-15T09:21:38.083Z,98024.34
2023-04-15T09:24:04.539Z,98025.72
2023-04-15T09:26:31.114Z,98022.63
2023-04-15T09:28:57.544Z,98021.16
2023-04-15T09:31:23.980Z,98018.56
2023-04-15T09:33:50.426Z,98023.31
2023-04-15T09:36:16.793Z,98023.53
2023-04-15T09:38:43.119Z,98034.63
2023-04-15T09:41:09.456Z,98022.34
2023-04-15T09:43:35.833Z,98027.56
2023-04-15T09:46:02.194Z,98028.47
2023-04-15T09:48:28.548Z,98028.72
2023-04-15T09:50:54.920Z,98020.63
2023-04-15T09:53:21.241Z,98034.13
2023-04-15T09:55:47.543Z,98031.16
2023-04-15T09:58:13.921Z,98027.03
2023-04-15T10:00:40.253Z,98034.63
2023-04-15T10:03:06.669Z,98037.88
2023-04-15T10:05:33.190Z,98036.50
2023-04-15T10:07:59.496Z,98033.53
2023-04-15T10:10:25.788Z,98031.69
2023-04-15T10:12:52.140Z,98024.84
2023-04-15T10:15:18.449Z,98024.59
2023-04-15T10:17:44.849Z,98024.25
2023-04-15T10:20:11.252Z,98022.22
2023-04-15T10:22:37.586Z,98029.34
2023-04-15T10:25:03.995Z,98022.75
2023-04-15T10:27:30.392Z,98023.63
2023-04-15T10:29:56.743Z,98021.78
2023-04-15T10:32:23.141Z,98024.97
2023-04-15T10:34:49.529Z,98025.84
2023-04-15T10:37:15.855Z,98025.13
2023-04-15T10:39:42.197Z,98027.53
2023-04-15T10:42:08.598Z,98023.41
2023-04-15T10:44:34.932Z,98023.03
2023-04-15T10:47:01.296Z,98021.91
2023-04-15T10:49:27.676Z,98023.97
2023-04-15T10:51:54.005Z,98026.84
2023-04-15T10:54:20.346Z,98028.09
2023-04-15T10:56:46.707Z,98026.25
2023-04-15T10:59:13.055Z,98030.13
2023-04-15T11:01:39.401Z,98025.91
2023-04-15T11:04:06.037Z,98027.91
2023-04-15T11:06:32.617Z,98032.22
2023-04-15T11:08:58.978Z,98030.31
2023-04-15T11:11:25.368Z,98027.72
2023-04-15T11:13:51.774Z,98025.78
2023-04-15T11:16:19.330Z,98024.31
2023-04-15T11:18:45.726Z,98022.03
2023-04-15T11:21:12.041Z,98028.25
2023-04-15T11:23:38.362Z,98033.47
2023-04-15T11:26:04.754Z,98028.78
2023-04-15T11:28:31.164Z,98036.72
2023-04-15T11:30:57.486Z,98035.19
2023-04-15T11:33:23.856Z,98033.34
2023-04-15T11:35:50.206Z,98029.53
2023-04-15T11:38:16.527Z,98028.03
2023-04-15T11:40:45.274Z,98029.72
2023-04-15T11:43:13.224Z,98042.66
2023-04-15T11:45:39.622Z,98040.72
2023-04-15T11:48:06.008Z,98043.19
2023-04-15T11:50:32.341Z,98042.88
2023-04-15T11:52:58.704Z,98048.44
2023-04-15T11:55:25.078Z,98044.63
2023-04-15T11:57:51.417Z,98045.53
2023-04-15T12:00:17.748Z,98054.13
2023-04-15T12:02:44.265Z,98045.22
2023-04-15T12:05:10.766Z,98054.22
2023-04-15T12:07:37.156Z,98059.44
2023-04-15T12:10:05.790Z,98056.78
2023-04-15T12:12:33.331Z,98060.72
2023-04-15T12:14:59.681Z,98058.50
2023-04-15T12:17:26.103Z,98062.91
2023-04-15T12:19:52.413Z,98065.72
2023-04-15T12:22:18.729Z,98068.53
2023-04-15T12:24:45.109Z,98068.25
2023-04-15T12:27:11.447Z,98061.34
2023-04-15T12:29:37.793Z,98066.88
2023-04-15T12:32:04.169Z,98062.28
2023-04-15T12:34:30.532Z,98062.34
2023-04-15T12:36:56.872Z,98067.50
2023-04-15T12:39:23.376Z,98064.44
2023-04-15T12:41:49.694Z,98066.44
2023-04-15T12:44:16.015Z,98069.63
2023-04-15T12:46:42.388Z,98070.47
2023-04-15T12:49:08.736Z,98074.88
2023-04-15T12:51:35.064Z,98069.81
2023-04-15T12:54:01.523Z,98077.28
2023-04-15T12:56:27.969Z,98075.78
2023-04-15T12:58:54.326Z,98070.75
2023-04-15T13:01:20.734Z,98078.22
2023-04-15T13:03:47.252Z,98076.34
2023-04-15T13:06:13.688Z,98081.06
2023-04-15T13:08:42.641Z,98077.31
2023-04-15T13:11:14.443Z,98080.09
2023-04-15T13:13:40.815Z,98079.03
2023-04-15T13:16:07.133Z,98075.16
2023-04-15T13:18:33.457Z,98077.19
2023-04-15T13:20:59.914Z,98080.78
2023-04-15T13:23:26.274Z,98082.84
2023-04-15T13:25:52.567Z,98080.56
2023-04-15T13:28:18.926Z,98077.09
2023-04-15T13:30:45.284Z,98079.16
2023-04-15T13:33:11.594Z,98074.09
2023-04-15T13:35:37.960Z,98069.81
2023-04-15T13:38:04.286Z,98071.03
2023-04-15T13:40:30.633Z,98075.00
2023-04-15T13:42:56.983Z,98072.69
2023-04-15T13:45:23.335Z,98070.38
2023-04-15T13:47:49.687Z,98075.91
2023-04-15T13:50:16.098Z,98079.50
2023-04-15T13:52:42.432Z,98076.44
2023-04-15T13:55:19.600Z,98082.72
2023-04-15T13:57:48.269Z,98076.50
2023-04-15T14:00:14.596Z,98083.19
2023-04-15T14:02:41.062Z,98084.03
2023-04-15T14:05:07.542Z,98083.28
2023-04-15T14:07:33.943Z,98084.16
2023-04-15T14:10:00.253Z,98084.59
2023-04-15T14:12:26.614Z,98087.31
2023-04-15T14:14:53.095Z,98091.72
2023-04-15T14:17:19.390Z,98093.72
2023-04-15T14:19:45.763Z,98096.88
2023-04-15T14:22:12.104Z,98103.94
2023-04-15T14:24:38.442Z,98105.94
2023-04-15T14:27:04.817Z,98102.09
2023-04-15T14:29:31.148Z,98107.19
2023-04-15T14:32:11.285Z,98112.72
2023-04-15T14:34:39.045Z,98115.94
2023-04-15T14:37:05.457Z,98139.53
2023-04-15T14:39:31.774Z,98154.84
2023-04-15T14:41:58.110Z,98168.63
2023-04-15T14:44:24.509Z,98171.03
2023-04-15T14:46:50.820Z,98181.69
2023-04-15T14:49:17.178Z,98189.19
2023-04-15T14:51:43.642Z,98183.69
2023-04-15T14:54:10.013Z,98199.41
2023-04-15T14:56:36.458Z,98190.06
2023-04-15T14:59:03.040Z,98191.63
2023-04-15T15:01:29.641Z,98190.06
2023-04-15T15:03:56.042Z,98190.06
2023-04-15T15:06:22.417Z,98188.44
2023-04-15T15:08:48.754Z,98189.63
2023-04-15T15:11:15.111Z,98197.41
2023-04-15T15:13:41.462Z,98200.59
2023-04-15T15:16:07.833Z,98195.84
2023-04-15T15:18:34.305Z,98193.88
2023-04-15T15:21:00.790Z,98199.00
2023-04-15T15:23:27.154Z,98205.28
2023-04-15T15:25:53.520Z,98200.16
2023-04-15T15:28:19.845Z,98200.53
2023-04-15T15:30:46.196Z,98195.41
2023-04-15T15:33:12.547Z,98189.94
2023-04-15T15:35:38.853Z,98180.47
2023-04-15T15:38:05.209Z,98185.56
2023-04-15T15:40:31.640Z,98188.22
2023-04-15T15:42:58.062Z,98192.97
2023-04-15T15:45:24.389Z,98180.00
2023-04-15T15:47:50.799Z,98181.22
2023-04-15T15:50:17.156Z,98189.06
2023-04-15T15:52:43.506Z,98187.09
2023-04-15T15:55:09.861Z,98174.16
2023-04-15T15:57:36.244Z,98177.66
2023-04-15T16:00:11.170Z,98180.00
2023-04-15T16:05:08.381Z,98180.00
2023-04-15T16:07:34.690Z,98181.59
2023-04-15T16:10:01.071Z,98181.59
2023-04-15T16:12:27.419Z,98180.00
2023-04-15T16:14:53.727Z,98176.88
2023-04-15T16:17:20.127Z,98179.22
2023-04-15T16:19:58.743Z,98179.22
2023-04-15T16:22:26.979Z,98183.13
2023-04-15T16:24:53.310Z,98189.41
2023-04-15T16:27:19.641Z,98184.31
2023-04-15T16:29:46.014Z,98192.53
2023-04-15T16:32:12.375Z,98191.78
2023-04-15T16:34:38.793Z,98191.34
2023-04-15T16:37:05.150Z,98198.00
2023-04-15T16:39:31.490Z,98205.50
2023-04-15T16:41:57.832Z,98200.41
2023-04-15T16:44:24.253Z,98204.31
2023-04-15T16:46:50.592Z,98210.59
2023-04-15T16:49:16.964Z,98217.25
2023-04-15T16:51:43.332Z,98220.84
2023-04-15T16:54:09.667Z,98228.69
2023-04-15T16:56:36.006Z,98223.22
2023-04-15T16:59:02.615Z,98233.81
2023-04-15T17:01:29.190Z,98235.31
2023-04-15T17:03:56.249Z,98238.50
2023-04-15T17:06:22.767Z,98247.91
2023-04-15T17:08:49.101Z,98254.47
2023-04-15T17:11:15.404Z,98252.16
2023-04-15T17:13:41.765Z,98261.97
2023-04-15T17:16:08.139Z,98267.44
2023-04-15T17:18:34.495Z,98270.56
2023-04-15T17:21:00.873Z,98274.41
2023-04-15T17:23:27.176Z,98271.22
2023-04-15T17:25:53.477Z,98286.09
2023-04-15T17:28:19.835Z,98286.09
2023-04-15T17:30:46.200Z,98285.66
2023-04-15T17:33:26.179Z,98295.00
2023-04-15T17:35:58.925Z,98299.69
2023-04-15T17:38:25.249Z,98302.00
2023-04-15T17:40:51.569Z,98308.22
2023-04-15T17:43:17.928Z,98312.47
2023-04-15T17:45:44.241Z,98310.91
2023-04-15T17:48:10.621Z,98325.34
2023-04-15T17:50:37.014Z,98314.63
2023-04-15T17:53:03.333Z,98330.31
2023-04-15T17:55:29.648Z,98335.72
2023-04-15T17:57:56.122Z,98337.69
2023-04-15T18:00:22.462Z,98343.88
2023-04-15T18:02:49.070Z,98354.00
2023-04-15T18:05:15.794Z,98355.16
2023-04-15T18:07:42.158Z,98349.94
2023-04-15T18:10:08.558Z,98363.19
2023-04-15T18:12:34.988Z,98365.09
2023-04-15T18:15:01.344Z,98361.91
2023-04-15T18:17:27.749Z,98373.13
2023-04-15T18:19:54.137Z,98367.16
2023-04-15T18:22:20.454Z,98380.78
2023-04-15T18:24:46.759Z,98390.09
2023-04-15T18:27:13.102Z,98398.22
2023-04-15T18:29:39.466Z,98404.78
2023-04-15T18:32:05.839Z,98418.66
2023-04-15T18:34:32.251Z,98416.72
2023-04-15T18:36:58.568Z,98417.44
2023-04-15T18:39:24.877Z,98416.19
2023-04-15T18:41:51.255Z,98422.38
2023-04-15T18:44:17.578Z,98430.16
2023-04-15T18:46:43.914Z,98432.09
2023-04-15T18:49:10.271Z,98438.28
2023-04-15T18:51:36.591Z,98443.69
2023-04-15T18:54:02.932Z,98433.91
2023-04-15T18:56:29.450Z,98448.31
2023-04-15T18:59:27.105Z,98443.63
2023-04-15T19:01:42.144Z,98447.06
2023-04-15T19:04:08.573Z,98461.09
2023-04-15T19:06:34.944Z,98464.53
2023-04-15T19:09:01.562Z,98466.75
2023-04-15T19:11:27.962Z,98468.78
2023-04-15T19:13:54.285Z,98472.50
2023-04-15T19:16:20.694Z,98476.81
2023-04-15T19:18:47.049Z,98488.09
2023-04-15T19:21:13.402Z,98478.53
2023-04-15T19:23:39.780Z,98489.16
2023-04-15T19:26:06.105Z,98493.03
2023-04-15T19:28:32.457Z,98494.53
2023-04-15T19:30:58.915Z,98499.56
2023-04-15T19:33:25.270Z,98493.63
2023-04-15T19:35:51.587Z,98504.41
2023-04-15T19:38:17.940Z,98507.47
2023-04-15T19:40:44.266Z,98508.53
2023-04-15T19:43:10.581Z,98503.78
2023-04-15T19:45:36.950Z,98502.88
2023-04-15T19:48:03.365Z,98507.56
2023-04-15T19:50:29.748Z,98505.50
2023-04-15T19:52:56.138Z,98507.72
2023-04-15T19:55:22.506Z,98512.38
2023-04-15T19:57:48.855Z,98509.19
2023-04-15T20:00:15.222Z,98504.69
2023-04-15T20:02:41.645Z,98511.66
2023-04-15T20:05:08.026Z,98525.31
2023-04-15T20:07:34.385Z,98522.03
2023-04-15T20:10:00.702Z,98527.84
2023-04-15T20:12:50.016Z,98523.44
2023-04-15T20:15:13.372Z,98532.44
2023-04-15T20:17:39.757Z,98530.63
2023-04-15T20:20:06.137Z,98532.56
2023-04-15T20:22:32.512Z,98533.59
2023-04-15T20:24:58.827Z,98542.25
2023-04-15T20:27:25.145Z,98531.31
2023-04-15T20:29:51.519Z,98541.00
2023-04-15T20:32:17.889Z,98540.91
2023-04-15T20:34:44.287Z,98540.13
2023-04-15T20:37:10.642Z,98538.41
2023-04-15T20:39:37.022Z,98541.03
2023-04-15T20:42:03.414Z,98543.97
2023-04-15T20:44:29.790Z,98540.44
2023-04-15T20:46:56.150Z,98545.47
2023-04-15T20:49:22.502Z,98545.03
2023-04-15T20:51:48.866Z,98551.97
2023-04-15T20:54:15.190Z,98551.88
2023-04-15T20:56:41.560Z,98550.63
2023-04-15T20:59:07.945Z,98548.56
2023-04-15T21:01:34.317Z,98560.50
2023-04-15T21:04:00.785Z,98561.56
2023-04-15T21:06:27.172Z,98566.09
2023-04-15T21:08:53.492Z,98571.44
2023-04-15T21:11:38.798Z,98577.28
2023-04-15T21:14:06.150Z,98581.47
2023-04-15T21:16:32.565Z,98588.41
2023-04-15T21:18:58.995Z,98584.88
2023-04-15T21:21:25.388Z,98585.22
2023-04-15T21:23:51.703Z,98590.69
2023-04-15T21:26:18.036Z,98596.81
2023-04-15T21:28:44.498Z,98597.97
2023-04-15T21:31:10.882Z,98607.63
2023-04-15T21:33:37.210Z,98608.78
2023-04-15T21:36:03.601Z,98617.66
2023-04-15T21:38:29.925Z,98621.38
2023-04-15T21:40:56.248Z,98623.31
2023-04-15T21:43:22.640Z,98629.94
2023-04-15T21:46:21.152Z,98625.25
2023-04-15T21:48:35.335Z,98621.28
2023-04-15T21:51:01.719Z,98637.19
2023-04-15T21:53:28.071Z,98631.16
2023-04-15T21:55:54.429Z,98635.00
2023-04-15T21:58:20.752Z,98638.53
2023-04-15T22:00:47.071Z,98643.53
2023-04-15T22:03:13.592Z,98644.22
2023-04-15T22:05:40.078Z,98642.97
2023-04-15T22:08:06.395Z,98638.97
2023-04-15T22:10:32.773Z,98643.19
2023-04-15T22:12:59.131Z,98639.97
2023-04-15T22:15:25.443Z,98637.13
2023-04-15T22:17:51.866Z,98637.94
2023-04-15T22:20:18.248Z,98636.66
2023-04-15T22:22:44.918Z,98638.94
2023-04-15T22:25:11.347Z,98639.25
2023-04-15T22:27:37.702Z,98650.03
2023-04-15T22:30:04.036Z,98651.97
2023-04-15T22:32:30.450Z,98649.31
2023-04-15T22:34:56.793Z,98654.31
2023-04-15T22:37:23.102Z,98656.91
2023-04-15T22:39:49.476Z,98659.53
2023-04-15T22:42:15.837Z,98659.03
2023-04-15T22:44:42.145Z,98667.41
2023-04-15T22:47:08.532Z,98668.44
2023-04-15T22:49:34.860Z,98659.44
2023-04-15T22:52:01.181Z,98670.69
2023-04-15T22:54:27.558Z,98665.91
2023-04-15T22:56:53.882Z,98677.97
2023-04-15T22:59:20.172Z,98673.97
2023-04-15T23:01:46.629Z,98673.81
2023-04-15T23:04:23.451Z,98678.47
2023-04-15T23:06:53.178Z,98676.75
2023-04-15T23:09:19.496Z,98680.16
2023-04-15T23:11:45.841Z,98682.72
2023-04-15T23:14:12.207Z,98686.56
2023-04-15T23:16:38.681Z,98685.31
2023-04-15T23:19:05.240Z,98690.31
2023-04-15T23:21:31.679Z,98692.88
2023-04-15T23:23:58.052Z,98695.16
2023-04-15T23:26:24.383Z,98695.47
2023-04-15T23:28:50.855Z,98693.41
2023-04-15T23:31:17.291Z,98696.00
2023-04-15T23:33:43.652Z,98691.22
2023-04-15T23:36:10.022Z,98698.59
2023-04-15T23:38:36.335Z,98699.25
2023-04-15T23:41:02.659Z,98703.88
2023-04-15T23:43:29.040Z,98705.34
2023-04-15T23:45:55.368Z,98704.09
2023-04-15T23:48:21.687Z,98711.78
2023-04-15T23:50:48.053Z,98709.72
2023-04-15T23:53:14.359Z,98702.69
2023-04-15T23:55:40.669Z,98708.28
2023-04-15T23:58:07.049Z,98713.41
